sensor_id;sensor_type;location;lat;lon;timestamp;pressure;altitude;pressure_sealevel;temperature;humidity
45731;BME280;31440;48.584;13.460;2023-02-04T00:02:15;97356.53;;;1.66;100.00
45731;BME280;31440;48.584;13.460;2023-02-04T00:05:19;97349.63;;;1.46;100.00
45731;BME280;31440;48.584;13.460;2023-02-04T00:08:25;97346.22;;;1.51;100.00
45731;BME280;31440;48.584;13.460;2023-02-04T00:11:29;97353.19;;;1.82;100.00
45731;BME280;31440;48.584;13.460;2023-02-04T00:14:34;97361.69;;;1.69;100.00
45731;BME280;31440;48.584;13.460;2023-02-04T00:17:38;97343.66;;;1.51;100.00
45731;BME280;31440;48.584;13.460;2023-02-04T00:20:45;97323.06;;;1.32;100.00
45731;BME280;31440;48.584;13.460;2023-02-04T00:23:49;97331.78;;;1.69;100.00
45731;BME280;31440;48.584;13.460;2023-02-04T00:26:54;97342.88;;;1.70;100.00
45731;BME280;31440;48.584;13.460;2023-02-04T00:29:59;97353.94;;;1.61;100.00
45731;BME280;31440;48.584;13.460;2023-02-04T00:33:05;97349.72;;;1.66;100.00
45731;BME280;31440;48.584;13.460;2023-02-04T00:36:10;97353.16;;;1.70;100.00
45731;BME280;31440;48.584;13.460;2023-02-04T00:39:14;97369.41;;;1.73;100.00
45731;BME280;31440;48.584;13.460;2023-02-04T00:42:19;97353.13;;;1.68;100.00
45731;BME280;31440;48.584;13.460;2023-02-04T00:45:23;97366.72;;;1.52;100.00
45731;BME280;31440;48.584;13.460;2023-02-04T00:48:28;97364.19;;;1.55;100.00
45731;BME280;31440;48.584;13.460;2023-02-04T00:51:34;97377.94;;;1.74;100.00
45731;BME280;31440;48.584;13.460;2023-02-04T00:54:39;97373.63;;;1.64;100.00
45731;BME280;31440;48.584;13.460;2023-02-04T00:57:44;97395.84;;;1.66;100.00
45731;BME280;31440;48.584;13.460;2023-02-04T01:00:50;97380.47;;;1.66;100.00
45731;BME280;31440;48.584;13.460;2023-02-04T01:03:55;97369.38;;;1.69;100.00
45731;BME280;31440;48.584;13.460;2023-02-04T01:07:00;97381.31;;;1.65;100.00
45731;BME280;31440;48.584;13.460;2023-02-04T01:10:06;97342.75;;;1.36;100.00
45731;BME280;31440;48.584;13.460;2023-02-04T01:13:11;97372.75;;;1.63;100.00
45731;BME280;31440;48.584;13.460;2023-02-04T01:16:15;97394.16;;;1.71;100.00
45731;BME280;31440;48.584;13.460;2023-02-04T01:19:20;97387.28;;;1.63;100.00
45731;BME280;31440;48.584;13.460;2023-02-04T01:22:25;97395.84;;;1.66;100.00
45731;BME280;31440;48.584;13.460;2023-02-04T01:25:29;97402.72;;;1.72;100.00
45731;BME280;31440;48.584;13.460;2023-02-04T01:28:36;97401.06;;;1.84;100.00
45731;BME280;31440;48.584;13.460;2023-02-04T01:31:40;97405.19;;;1.60;100.00
45731;BME280;31440;48.584;13.460;2023-02-04T01:34:45;97415.50;;;1.67;100.00
45731;BME280;31440;48.584;13.460;2023-02-04T01:37:49;97398.41;;;1.65;100.00
45731;BME280;31440;48.584;13.460;2023-02-04T01:40:54;97407.78;;;1.64;100.00
45731;BME280;31440;48.584;13.460;2023-02-04T01:43:59;97412.91;;;1.58;100.00
45731;BME280;31440;48.584;13.460;2023-02-04T01:47:04;97423.16;;;1.58;100.00
45731;BME280;31440;48.584;13.460;2023-02-04T01:50:12;97421.53;;;1.75;100.00
45731;BME280;31440;48.584;13.460;2023-02-04T01:53:23;97418.03;;;1.57;100.00
45731;BME280;31440;48.584;13.460;2023-02-04T01:56:29;97423.16;;;1.58;100.00
45731;BME280;31440;48.584;13.460;2023-02-04T01:59:34;97433.34;;;1.49;100.00
45731;BME280;31440;48.584;13.460;2023-02-04T02:02:49;97429.13;;;1.60;100.00
45731;BME280;31440;48.584;13.460;2023-02-04T02:05:55;97446.13;;;1.46;100.00
45731;BME280;31440;48.584;13.460;2023-02-04T02:09:02;97431.72;;;1.65;100.00
45731;BME280;31440;48.584;13.460;2023-02-04T02:12:07;97434.19;;;1.48;100.00
45731;BME280;31440;48.584;13.460;2023-02-04T02:15:13;97445.38;;;1.56;100.00
45731;BME280;31440;48.584;13.460;2023-02-04T02:18:18;97430.84;;;1.57;100.00
45731;BME280;31440;48.584;13.460;2023-02-04T02:21:34;97436.75;;;1.48;100.00
45731;BME280;31440;48.584;13.460;2023-02-04T02:24:41;97439.34;;;1.51;100.00
45731;BME280;31440;48.584;13.460;2023-02-04T02:27:46;97452.19;;;1.56;100.00
45731;BME280;31440;48.584;13.460;2023-02-04T02:30:51;97424.72;;;1.36;100.00
45731;BME280;31440;48.584;13.460;2023-02-04T02:33:56;97438.41;;;1.38;100.00
45731;BME280;31440;48.584;13.460;2023-02-04T02:37:01;97423.88;;;1.40;100.00
45731;BME280;31440;48.584;13.460;2023-02-04T02:40:07;97452.94;;;1.38;100.00
45731;BME280;31440;48.584;13.460;2023-02-04T02:43:17;97460.63;;;1.38;100.00
45731;BME280;31440;48.584;13.460;2023-02-04T02:46:22;97448.69;;;1.44;100.00
45731;BME280;31440;48.584;13.460;2023-02-04T02:49:29;97464.03;;;1.43;100.00
45731;BME280;31440;48.584;13.460;2023-02-04T02:52:35;97480.22;;;1.31;100.00
45731;BME280;31440;48.584;13.460;2023-02-04T02:55:40;97466.59;;;1.37;100.00
45731;BME280;31440;48.584;13.460;2023-02-04T02:58:45;97448.63;;;1.35;100.00
45731;BME280;31440;48.584;13.460;2023-02-04T03:01:55;97443.59;;;1.47;100.00
45731;BME280;31440;48.584;13.460;2023-02-04T03:05:04;97456.44;;;1.54;100.00
45731;BME280;31440;48.584;13.460;2023-02-04T03:08:10;97450.38;;;1.41;100.00
45731;BME280;31440;48.584;13.460;2023-02-04T03:11:17;97459.84;;;1.49;100.00
45731;BME280;31440;48.584;13.460;2023-02-04T03:14:22;97463.19;;;1.39;100.00
45731;BME280;31440;48.584;13.460;2023-02-04T03:17:28;97480.34;;;1.49;100.00
45731;BME280;31440;48.584;13.460;2023-02-04T03:20:33;97474.28;;;1.41;100.00
45731;BME280;31440;48.584;13.460;2023-02-04T03:23:38;97485.34;;;1.33;100.00
45731;BME280;31440;48.584;13.460;2023-02-04T03:26:43;97495.50;;;1.25;100.00
45731;BME280;31440;48.584;13.460;2023-02-04T03:29:48;97489.63;;;1.34;100.00
45731;BME280;31440;48.584;13.460;2023-02-04T03:32:53;97491.31;;;1.32;100.00
45731;BME280;31440;48.584;13.460;2023-02-04T03:35:58;97519.56;;;1.38;100.00
45731;BME280;31440;48.584;13.460;2023-02-04T03:39:03;97510.97;;;1.33;100.00
45731;BME280;31440;48.584;13.460;2023-02-04T03:42:08;97531.41;;;1.28;100.00
45731;BME280;31440;48.584;13.460;2023-02-04T03:45:12;97541.63;;;1.21;100.00
45731;BME280;31440;48.584;13.460;2023-02-04T03:48:17;97519.44;;;1.27;100.00
45731;BME280;31440;48.584;13.460;2023-02-04T03:51:23;97492.81;;;1.08;100.00
45731;BME280;31440;48.584;13.460;2023-02-04T03:54:28;97540.88;;;1.34;100.00
45731;BME280;31440;48.584;13.460;2023-02-04T03:57:32;97563.88;;;1.28;100.00
45731;BME280;31440;48.584;13.460;2023-02-04T04:00:37;97543.44;;;1.35;100.00
45731;BME280;31440;48.584;13.460;2023-02-04T04:03:42;97558.81;;;1.35;100.00
45731;BME280;31440;48.584;13.460;2023-02-04T04:06:46;97555.50;;;1.48;100.00
45731;BME280;31440;48.584;13.460;2023-02-04T04:09:52;97519.41;;;1.24;100.00
45731;BME280;31440;48.584;13.460;2023-02-04T04:12:57;97540.00;;;1.33;100.00
45731;BME280;31440;48.584;13.460;2023-02-04T04:16:01;97557.09;;;1.34;100.00
45731;BME280;31440;48.584;13.460;2023-02-04T04:19:08;97556.97;;;1.19;100.00
45731;BME280;31440;48.584;13.460;2023-02-04T04:22:12;97563.06;;;1.33;100.00
45731;BME280;31440;48.584;13.460;2023-02-04T04:25:17;97563.09;;;1.36;100.00
45731;BME280;31440;48.584;13.460;2023-02-04T04:28:21;97572.53;;;1.42;100.00
45731;BME280;31440;48.584;13.460;2023-02-04T04:31:26;97584.31;;;1.23;100.00
45731;BME280;31440;48.584;13.460;2023-02-04T04:34:31;97576.56;;;1.14;100.00
45731;BME280;31440;48.584;13.460;2023-02-04T04:37:35;97610.00;;;1.29;100.00
45731;BME280;31440;48.584;13.460;2023-02-04T04:40:40;97603.97;;;1.24;100.00
45731;BME280;31440;48.584;13.460;2023-02-04T04:43:44;97617.72;;;1.32;100.00
45731;BME280;31440;48.584;13.460;2023-02-04T04:46:49;97617.53;;;1.14;100.00
45731;BME280;31440;48.584;13.460;2023-02-04T04:49:53;97627.06;;;1.29;100.00
45731;BME280;31440;48.584;13.460;2023-02-04T04:52:58;97649.31;;;1.31;100.00
45731;BME280;31440;48.584;13.460;2023-02-04T04:56:03;97657.88;;;1.35;100.00
45731;BME280;31440;48.584;13.460;2023-02-04T04:59:07;97659.41;;;1.18;100.00
45731;BME280;31440;48.584;13.460;2023-02-04T05:02:12;97688.41;;;1.13;100.00
45731;BME280;31440;48.584;13.460;2023-02-04T05:05:16;97683.06;;;0.95;100.00
45731;BME280;31440;48.584;13.460;2023-02-04T05:08:21;97710.00;;;0.69;100.00
45731;BME280;31440;48.584;13.460;2023-02-04T05:11:25;97726.53;;;0.91;100.00
45731;BME280;31440;48.584;13.460;2023-02-04T05:17:35;97720.38;;;0.76;100.00
45731;BME280;31440;48.584;13.460;2023-02-04T05:20:40;97732.00;;;0.55;100.00
45731;BME280;31440;48.584;13.460;2023-02-04T05:23:44;97742.91;;;0.43;100.00
45731;BME280;31440;48.584;13.460;2023-02-04T05:26:49;97747.25;;;0.47;100.00
45731;BME280;31440;48.584;13.460;2023-02-04T05:29:55;97710.22;;;0.24;100.00
45731;BME280;31440;48.584;13.460;2023-02-04T05:33:00;97756.66;;;0.51;100.00
45731;BME280;31440;48.584;13.460;2023-02-04T05:36:04;97758.19;;;0.38;100.00
45731;BME280;31440;48.584;13.460;2023-02-04T05:39:09;97764.16;;;0.39;100.00
45731;BME280;31440;48.584;13.460;2023-02-04T05:42:13;97756.63;;;0.47;100.00
45731;BME280;31440;48.584;13.460;2023-02-04T05:45:18;97774.31;;;0.31;100.00
45731;BME280;31440;48.584;13.460;2023-02-04T05:48:22;97798.84;;;0.22;100.00
45731;BME280;31440;48.584;13.460;2023-02-04T05:51:27;97806.50;;;0.20;100.00
45731;BME280;31440;48.584;13.460;2023-02-04T05:54:31;97814.38;;;0.31;100.00
45731;BME280;31440;48.584;13.460;2023-02-04T05:57:36;97832.13;;;0.23;100.00
45731;BME280;31440;48.584;13.460;2023-02-04T06:00:42;97835.41;;;0.15;100.00
45731;BME280;31440;48.584;13.460;2023-02-04T06:03:47;97844.00;;;0.20;100.00
45731;BME280;31440;48.584;13.460;2023-02-04T06:06:53;97839.56;;;0.09;100.00
45731;BME280;31440;48.584;13.460;2023-02-04T06:09:58;97867.97;;;0.25;100.00
45731;BME280;31440;48.584;13.460;2023-02-04T06:13:03;97880.59;;;0.14;100.00
45731;BME280;31440;48.584;13.460;2023-02-04T06:16:08;97891.00;;;0.25;100.00
45731;BME280;31440;48.584;13.460;2023-02-04T06:19:14;97865.22;;;0.16;100.00
45731;BME280;31440;48.584;13.460;2023-02-04T06:22:19;97904.84;;;0.36;100.00
45731;BME280;31440;48.584;13.460;2023-02-04T06:25:23;97916.81;;;0.38;100.00
45731;BME280;31440;48.584;13.460;2023-02-04T06:28:28;97915.41;;;0.07;100.00
45731;BME280;31440;48.584;13.460;2023-02-04T06:31:33;97928.56;;;0.27;100.00
45731;BME280;31440;48.584;13.460;2023-02-04T06:34:38;97926.94;;;0.31;100.00
45731;BME280;31440;48.584;13.460;2023-02-04T06:37:43;97934.78;;;0.41;100.00
45731;BME280;31440;48.584;13.460;2023-02-04T06:43:56;97954.06;;;0.23;100.00
45731;BME280;31440;48.584;13.460;2023-02-04T06:47:01;97967.13;;;0.38;100.00
45731;BME280;31440;48.584;13.460;2023-02-04T06:50:06;97981.72;;;0.42;100.00
45731;BME280;31440;48.584;13.460;2023-02-04T06:53:11;97994.31;;;0.31;100.00
45731;BME280;31440;48.584;13.460;2023-02-04T06:56:15;97986.81;;;0.40;100.00
45731;BME280;31440;48.584;13.460;2023-02-04T07:02:26;98001.41;;;0.46;100.00
45731;BME280;31440;48.584;13.460;2023-02-04T07:05:31;98009.59;;;0.28;100.00
45731;BME280;31440;48.584;13.460;2023-02-04T07:08:36;98012.91;;;0.66;100.00
45731;BME280;31440;48.584;13.460;2023-02-04T07:11:40;98023.47;;;0.41;100.00
45731;BME280;31440;48.584;13.460;2023-02-04T07:14:45;98025.75;;;0.71;100.00
45731;BME280;31440;48.584;13.460;2023-02-04T07:17:49;98028.59;;;0.41;100.00
45731;BME280;31440;48.584;13.460;2023-02-04T07:20:56;98002.28;;;0.04;100.00
45731;BME280;31440;48.584;13.460;2023-02-04T07:24:01;98042.78;;;0.69;100.00
45731;BME280;31440;48.584;13.460;2023-02-04T07:27:05;98043.72;;;0.72;100.00
45731;BME280;31440;48.584;13.460;2023-02-04T07:30:11;98057.31;;;0.68;100.00
45731;BME280;31440;48.584;13.460;2023-02-04T07:33:16;98055.16;;;0.46;100.00
45731;BME280;31440;48.584;13.460;2023-02-04T07:36:20;98065.50;;;0.51;100.00
45731;BME280;31440;48.584;13.460;2023-02-04T07:39:27;98015.81;;;0.00;100.00
45731;BME280;31440;48.584;13.460;2023-02-04T07:42:32;98072.13;;;0.42;100.00
45731;BME280;31440;48.584;13.460;2023-02-04T07:45:43;98072.31;;;0.52;100.00
45731;BME280;31440;48.584;13.460;2023-02-04T07:48:48;98084.22;;;0.50;100.00
45731;BME280;31440;48.584;13.460;2023-02-04T07:51:53;98093.22;;;0.73;100.00
45731;BME280;31440;48.584;13.460;2023-02-04T07:54:57;98089.63;;;1.08;100.00
45731;BME280;31440;48.584;13.460;2023-02-04T07:58:03;98098.94;;;0.60;100.00
45731;BME280;31440;48.584;13.460;2023-02-04T08:01:08;98100.50;;;0.53;100.00
45731;BME280;31440;48.584;13.460;2023-02-04T08:07:18;98121.34;;;0.29;100.00
45731;BME280;31440;48.584;13.460;2023-02-04T08:10:23;98129.97;;;0.76;100.00
45731;BME280;31440;48.584;13.460;2023-02-04T08:13:27;98140.41;;;0.84;100.00
45731;BME280;31440;48.584;13.460;2023-02-04T08:16:32;98140.06;;;2.12;100.00
45731;BME280;31440;48.584;13.460;2023-02-04T08:19:38;98101.56;;;1.56;100.00
45731;BME280;31440;48.584;13.460;2023-02-04T08:22:43;98150.47;;;1.20;100.00
45731;BME280;31440;48.584;13.460;2023-02-04T08:25:47;98155.59;;;1.20;100.00
45731;BME280;31440;48.584;13.460;2023-02-04T08:28:52;98167.06;;;0.95;100.00
45731;BME280;31440;48.584;13.460;2023-02-04T08:31:56;98164.97;;;0.76;100.00
45731;BME280;31440;48.584;13.460;2023-02-04T08:35:01;98159.72;;;0.68;100.00
45731;BME280;31440;48.584;13.460;2023-02-04T08:38:07;98166.47;;;0.66;100.00
45731;BME280;31440;48.584;13.460;2023-02-04T08:41:11;98173.34;;;0.69;100.00
45731;BME280;31440;48.584;13.460;2023-02-04T08:44:16;98191.44;;;0.76;100.00
45731;BME280;31440;48.584;13.460;2023-02-04T08:47:21;98191.09;;;1.00;100.00
45731;BME280;31440;48.584;13.460;2023-02-04T08:50:27;98149.44;;;0.67;100.00
45731;BME280;31440;48.584;13.460;2023-02-04T08:56:41;98200.09;;;1.25;98.00
45731;BME280;31440;48.584;13.460;2023-02-04T08:59:45;98213.19;;;1.39;100.00
45731;BME280;31440;48.584;13.460;2023-02-04T09:02:50;98222.75;;;1.47;100.00
45731;BME280;31440;48.584;13.460;2023-02-04T09:05:54;98235.22;;;1.74;100.00
45731;BME280;31440;48.584;13.460;2023-02-04T09:09:00;98211.63;;;1.47;100.00
45731;BME280;31440;48.584;13.460;2023-02-04T09:12:05;98236.91;;;1.74;100.00
45731;BME280;31440;48.584;13.460;2023-02-04T09:15:10;98238.81;;;1.86;100.00
45731;BME280;31440;48.584;13.460;2023-02-04T09:18:15;98242.06;;;1.75;100.00
45731;BME280;31440;48.584;13.460;2023-02-04T09:21:21;98251.75;;;2.43;99.92
45731;BME280;31440;48.584;13.460;2023-02-04T09:24:25;98248.84;;;2.22;100.00
45731;BME280;31440;48.584;13.460;2023-02-04T09:27:30;98256.75;;;2.35;100.00
45731;BME280;31440;48.584;13.460;2023-02-04T09:30:35;98264.44;;;2.34;100.00
45731;BME280;31440;48.584;13.460;2023-02-04T09:33:39;98275.88;;;2.03;98.18
45731;BME280;31440;48.584;13.460;2023-02-04T09:36:44;98291.88;;;1.44;100.00
45731;BME280;31440;48.584;13.460;2023-02-04T09:39:49;98233.09;;;1.10;100.00
45731;BME280;31440;48.584;13.460;2023-02-04T09:42:54;98301.69;;;1.22;100.00
45731;BME280;31440;48.584;13.460;2023-02-04T09:45:59;98309.75;;;1.40;100.00
45731;BME280;31440;48.584;13.460;2023-02-04T09:49:04;98311.44;;;0.99;100.00
45731;BME280;31440;48.584;13.460;2023-02-04T09:52:11;98323.41;;;1.39;100.00
45731;BME280;31440;48.584;13.460;2023-02-04T09:55:19;98330.75;;;1.24;100.00
45731;BME280;31440;48.584;13.460;2023-02-04T09:58:28;98341.81;;;1.63;95.74
45731;BME280;31440;48.584;13.460;2023-02-04T10:04:40;98350.28;;;1.59;91.90
45731;BME280;31440;48.584;13.460;2023-02-04T10:07:45;98349.03;;;1.82;95.25
45731;BME280;31440;48.584;13.460;2023-02-04T10:10:53;98343.34;;;1.54;91.27
45731;BME280;31440;48.584;13.460;2023-02-04T10:13:57;98355.31;;;1.98;89.07
45731;BME280;31440;48.584;13.460;2023-02-04T10:17:02;98364.47;;;1.43;81.48
45731;BME280;31440;48.584;13.460;2023-02-04T10:20:20;98376.03;;;1.64;83.60
45731;BME280;31440;48.584;13.460;2023-02-04T10:23:25;98369.91;;;1.57;82.75
45731;BME280;31440;48.584;13.460;2023-02-04T10:26:30;98388.38;;;1.42;79.56
45731;BME280;31440;48.584;13.460;2023-02-04T10:29:36;98380.47;;;1.72;84.30
45731;BME280;31440;48.584;13.460;2023-02-04T10:32:41;98388.34;;;1.81;77.14
45731;BME280;31440;48.584;13.460;2023-02-04T10:35:49;98394.84;;;2.54;79.67
45731;BME280;31440;48.584;13.460;2023-02-04T10:42:00;98394.34;;;2.75;70.55
45731;BME280;31440;48.584;13.460;2023-02-04T10:45:05;98389.56;;;3.57;68.69
45731;BME280;31440;48.584;13.460;2023-02-04T10:48:17;98393.25;;;3.77;62.95
45731;BME280;31440;48.584;13.460;2023-02-04T10:51:22;98396.31;;;3.47;63.09
45731;BME280;31440;48.584;13.460;2023-02-04T10:54:37;98398.03;;;5.04;57.14
45731;BME280;31440;48.584;13.460;2023-02-04T10:57:43;98392.06;;;5.11;56.55
45731;BME280;31440;48.584;13.460;2023-02-04T11:00:50;98385.50;;;5.62;58.30
45731;BME280;31440;48.584;13.460;2023-02-04T11:03:54;98377.03;;;5.86;54.03
45731;BME280;31440;48.584;13.460;2023-02-04T11:07:00;98355.03;;;5.00;53.88
45731;BME280;31440;48.584;13.460;2023-02-04T11:10:05;98374.06;;;4.20;56.08
45731;BME280;31440;48.584;13.460;2023-02-04T11:13:24;98369.81;;;4.22;57.22
45731;BME280;31440;48.584;13.460;2023-02-04T11:16:31;98363.88;;;5.39;51.39
45731;BME280;31440;48.584;13.460;2023-02-04T11:19:37;98376.81;;;5.45;54.93
45731;BME280;31440;48.584;13.460;2023-02-04T11:22:44;98378.72;;;5.81;51.45
45731;BME280;31440;48.584;13.460;2023-02-04T11:26:19;98368.59;;;7.22;53.64
45731;BME280;31440;48.584;13.460;2023-02-04T11:29:32;98375.47;;;6.33;49.39
45731;BME280;31440;48.584;13.460;2023-02-04T11:32:55;98368.63;;;6.78;48.02
45731;BME280;31440;48.584;13.460;2023-02-04T11:36:06;98363.28;;;5.96;49.82
45731;BME280;31440;48.584;13.460;2023-02-04T11:39:15;98359.16;;;7.01;47.32
45731;BME280;31440;48.584;13.460;2023-02-04T11:42:40;98348.78;;;6.62;48.05
45731;BME280;31440;48.584;13.460;2023-02-04T11:45:45;98348.69;;;6.02;50.60
45731;BME280;31440;48.584;13.460;2023-02-04T11:48:55;98351.81;;;5.38;49.66
45731;BME280;31440;48.584;13.460;2023-02-04T11:52:10;98350.00;;;5.20;52.40
45731;BME280;31440;48.584;13.460;2023-02-04T11:55:16;98350.69;;;4.93;50.82
45731;BME280;31440;48.584;13.460;2023-02-04T11:58:22;98352.88;;;4.47;53.35
45731;BME280;31440;48.584;13.460;2023-02-04T12:01:31;98353.47;;;4.19;55.96
45731;BME280;31440;48.584;13.460;2023-02-04T12:04:37;98328.59;;;3.48;52.68
45731;BME280;31440;48.584;13.460;2023-02-04T12:07:42;98349.75;;;3.94;53.34
45731;BME280;31440;48.584;13.460;2023-02-04T12:14:08;98349.50;;;3.74;54.63
45731;BME280;31440;48.584;13.460;2023-02-04T12:17:17;98355.56;;;6.11;50.19
45731;BME280;31440;48.584;13.460;2023-02-04T12:20:22;98363.03;;;4.32;51.95
45731;BME280;31440;48.584;13.460;2023-02-04T12:23:28;98370.03;;;4.44;52.04
45731;BME280;31440;48.584;13.460;2023-02-04T12:26:32;98370.53;;;4.11;53.10
45731;BME280;31440;48.584;13.460;2023-02-04T12:29:37;98374.09;;;4.22;54.25
45731;BME280;31440;48.584;13.460;2023-02-04T12:32:42;98376.09;;;3.76;54.39
45731;BME280;31440;48.584;13.460;2023-02-04T12:35:46;98371.94;;;3.86;54.91
45731;BME280;31440;48.584;13.460;2023-02-04T12:38:51;98381.63;;;3.37;51.45
45731;BME280;31440;48.584;13.460;2023-02-04T12:41:55;98376.91;;;3.74;52.58
45731;BME280;31440;48.584;13.460;2023-02-04T12:45:00;98378.59;;;3.69;54.55
45731;BME280;31440;48.584;13.460;2023-02-04T12:48:04;98377.97;;;3.24;55.11
45731;BME280;31440;48.584;13.460;2023-02-04T12:51:09;98380.72;;;3.35;54.41
45731;BME280;31440;48.584;13.460;2023-02-04T12:54:14;98389.94;;;3.19;54.28
45731;BME280;31440;48.584;13.460;2023-02-04T12:57:18;98391.81;;;3.33;55.65
45731;BME280;31440;48.584;13.460;2023-02-04T13:00:23;98390.81;;;3.23;58.13
45731;BME280;31440;48.584;13.460;2023-02-04T13:03:28;98382.50;;;3.41;54.56
45731;BME280;31440;48.584;13.460;2023-02-04T13:06:33;98378.50;;;3.01;55.28
45731;BME280;31440;48.584;13.460;2023-02-04T13:09:38;98379.66;;;3.84;76.16
45731;BME280;31440;48.584;13.460;2023-02-04T13:12:43;98376.97;;;3.77;56.62
45731;BME280;31440;48.584;13.460;2023-02-04T13:15:47;98391.44;;;3.67;56.84
45731;BME280;31440;48.584;13.460;2023-02-04T13:18:52;98392.50;;;3.22;56.94
45731;BME280;31440;48.584;13.460;2023-02-04T13:21:57;98393.06;;;3.62;56.10
45731;BME280;31440;48.584;13.460;2023-02-04T13:25:01;98399.03;;;4.29;54.03
45731;BME280;31440;48.584;13.460;2023-02-04T13:31:13;98395.84;;;5.66;48.99
45731;BME280;31440;48.584;13.460;2023-02-04T13:34:18;98396.63;;;4.43;51.40
45731;BME280;31440;48.584;13.460;2023-02-04T13:37:23;98400.00;;;4.37;50.70
45731;BME280;31440;48.584;13.460;2023-02-04T13:40:27;98399.84;;;3.57;54.51
45731;BME280;31440;48.584;13.460;2023-02-04T13:43:32;98403.09;;;4.92;51.41
45731;BME280;31440;48.584;13.460;2023-02-04T13:46:36;98404.09;;;5.11;50.20
45731;BME280;31440;48.584;13.460;2023-02-04T13:49:44;98360.03;;;4.82;50.70
45731;BME280;31440;48.584;13.460;2023-02-04T13:52:48;98400.81;;;5.36;48.25
45731;BME280;31440;48.584;13.460;2023-02-04T13:55:53;98394.75;;;5.25;49.71
45731;BME280;31440;48.584;13.460;2023-02-04T13:58:58;98401.31;;;6.47;46.54
45731;BME280;31440;48.584;13.460;2023-02-04T14:02:02;98403.94;;;7.45;44.47
45731;BME280;31440;48.584;13.460;2023-02-04T14:05:07;98403.94;;;7.40;43.88
45731;BME280;31440;48.584;13.460;2023-02-04T14:08:11;98415.19;;;7.30;42.94
45731;BME280;31440;48.584;13.460;2023-02-04T14:14:22;98416.88;;;6.70;42.24
45731;BME280;31440;48.584;13.460;2023-02-04T14:17:27;98422.91;;;4.96;45.49
45731;BME280;31440;48.584;13.460;2023-02-04T14:20:32;98424.97;;;4.43;47.36
45731;BME280;31440;48.584;13.460;2023-02-04T14:23:37;98434.91;;;4.12;49.22
45731;BME280;31440;48.584;13.460;2023-02-04T14:26:41;98447.03;;;3.57;49.31
45731;BME280;31440;48.584;13.460;2023-02-04T14:29:46;98442.19;;;3.80;47.91
45731;BME280;31440;48.584;13.460;2023-02-04T14:32:50;98456.50;;;3.06;50.66
45731;BME280;31440;48.584;13.460;2023-02-04T14:35:55;98453.91;;;5.07;45.62
45731;BME280;31440;48.584;13.460;2023-02-04T14:39:00;98451.22;;;4.93;46.76
45731;BME280;31440;48.584;13.460;2023-02-04T14:42:04;98451.34;;;6.58;46.29
45731;BME280;31440;48.584;13.460;2023-02-04T14:45:10;98454.78;;;6.79;42.36
45731;BME280;31440;48.584;13.460;2023-02-04T14:48:15;98457.41;;;6.77;41.51
45731;BME280;31440;48.584;13.460;2023-02-04T14:51:20;98453.81;;;4.96;44.54
45731;BME280;31440;48.584;13.460;2023-02-04T14:54:24;98457.09;;;4.03;46.31
45731;BME280;31440;48.584;13.460;2023-02-04T14:57:29;98451.41;;;3.65;48.22
45731;BME280;31440;48.584;13.460;2023-02-04T15:00:33;98463.41;;;3.64;51.14
45731;BME280;31440;48.584;13.460;2023-02-04T15:03:38;98477.91;;;3.05;50.54
45731;BME280;31440;48.584;13.460;2023-02-04T15:06:43;98473.16;;;2.31;52.25
45731;BME280;31440;48.584;13.460;2023-02-04T15:09:49;98477.09;;;2.58;52.02
45731;BME280;31440;48.584;13.460;2023-02-04T15:12:54;98473.59;;;2.54;52.55
45731;BME280;31440;48.584;13.460;2023-02-04T15:15:58;98482.16;;;1.70;54.73
45731;BME280;31440;48.584;13.460;2023-02-04T15:19:03;98481.53;;;1.82;54.22
45731;BME280;31440;48.584;13.460;2023-02-04T15:22:08;98487.06;;;2.00;54.02
45731;BME280;31440;48.584;13.460;2023-02-04T15:25:12;98490.78;;;1.74;54.18
45731;BME280;31440;48.584;13.460;2023-02-04T15:28:17;98490.22;;;1.87;54.00
45731;BME280;31440;48.584;13.460;2023-02-04T15:31:22;98498.13;;;1.98;56.51
45731;BME280;31440;48.584;13.460;2023-02-04T15:37:34;98501.00;;;1.35;58.06
45731;BME280;31440;48.584;13.460;2023-02-04T15:40:38;98511.91;;;0.93;58.70
45731;BME280;31440;48.584;13.460;2023-02-04T15:43:43;98515.56;;;1.01;56.90
45731;BME280;31440;48.584;13.460;2023-02-04T15:46:47;98517.28;;;1.02;59.57
45731;BME280;31440;48.584;13.460;2023-02-04T15:49:53;98509.84;;;0.78;59.75
45731;BME280;31440;48.584;13.460;2023-02-04T15:52:57;98522.03;;;0.89;59.02
45731;BME280;31440;48.584;13.460;2023-02-04T15:56:03;98526.94;;;0.79;57.53
45731;BME280;31440;48.584;13.460;2023-02-04T15:59:08;98541.75;;;0.60;59.80
45731;BME280;31440;48.584;13.460;2023-02-04T16:02:13;98540.81;;;0.56;60.17
45731;BME280;31440;48.584;13.460;2023-02-04T16:05:17;98544.13;;;0.84;59.82
45731;BME280;31440;48.584;13.460;2023-02-04T16:08:22;98542.06;;;1.03;61.92
45731;BME280;31440;48.584;13.460;2023-02-04T16:11:27;98558.56;;;0.82;61.16
45731;BME280;31440;48.584;13.460;2023-02-04T16:14:31;98559.47;;;0.84;64.37
45731;BME280;31440;48.584;13.460;2023-02-04T16:17:36;98564.84;;;0.93;65.26
45731;BME280;31440;48.584;13.460;2023-02-04T16:20:40;98566.03;;;0.74;65.31
45731;BME280;31440;48.584;13.460;2023-02-04T16:23:45;98575.44;;;0.75;62.28
45731;BME280;31440;48.584;13.460;2023-02-04T16:26:52;98542.81;;;0.36;67.16
45731;BME280;31440;48.584;13.460;2023-02-04T16:29:57;98575.44;;;0.75;60.54
45731;BME280;31440;48.584;13.460;2023-02-04T16:33:01;98577.94;;;0.72;64.24
45731;BME280;31440;48.584;13.460;2023-02-04T16:36:07;98588.84;;;0.65;62.91
45731;BME280;31440;48.584;13.460;2023-02-04T16:39:14;98586.16;;;0.30;64.23
45731;BME280;31440;48.584;13.460;2023-02-04T16:42:19;98585.75;;;0.47;62.28
45731;BME280;31440;48.584;13.460;2023-02-04T16:45:23;98586.28;;;0.06;64.32
45731;BME280;31440;48.584;13.460;2023-02-04T16:48:28;98599.56;;;0.23;65.16
45731;BME280;31440;48.584;13.460;2023-02-04T16:51:32;98605.13;;;0.38;68.34